createdAt,value
2022-08-02T00:10:17.884Z,37.11
2022-08-02T00:25:20.137Z,37.64
2022-08-02T00:40:22.354Z,37.13
2022-08-02T00:55:31.215Z,37.84
2022-08-02T01:10:33.844Z,38.54
2022-08-02T01:25:36.017Z,37.98
2022-08-02T01:40:38.327Z,37.6
2022-08-02T01:55:57.916Z,37.17
2022-08-02T02:12:11.630Z,35.6
2022-08-02T02:27:16.001Z,34.91
2022-08-02T02:42:18.420Z,34.66
2022-08-02T02:57:20.780Z,34.12
2022-08-02T03:12:26.885Z,32.95
2022-08-02T03:27:32.913Z,31.31
2022-08-02T03:42:35.191Z,30.55
2022-08-02T03:57:37.451Z,29.57
2022-08-02T04:12:39.711Z,28.69
2022-08-02T04:27:50.364Z,28.27
2022-08-02T04:43:18.283Z,28.07
2022-08-02T04:58:39.302Z,28.17
2022-08-02T05:13:59.313Z,26.92
2022-08-02T05:29:01.927Z,26.98
2022-08-02T05:44:04.145Z,26.94
2022-08-02T05:59:06.553Z,25.97
2022-08-02T06:14:08.752Z,24.98
2022-08-02T06:29:10.937Z,25.94
2022-08-02T06:44:46.012Z,25.29
2022-08-02T06:59:53.249Z,25.46
2022-08-02T07:14:55.463Z,25.32
2022-08-02T07:29:57.798Z,24.84
2022-08-02T07:45:00.073Z,24.51
2022-08-02T08:00:02.462Z,24.81
2022-08-02T08:15:04.831Z,23.85
2022-08-02T08:30:07.037Z,23.41
2022-08-02T08:45:09.268Z,23.63
2022-08-02T09:00:11.527Z,23.96
2022-08-02T09:15:16.008Z,23.64
2022-08-02T09:30:18.572Z,22.55
2022-08-02T09:45:20.801Z,22.3
2022-08-02T10:00:43.378Z,22.06
2022-08-02T10:15:54.294Z,22.28
2022-08-02T10:30:56.501Z,22.23
2022-08-02T10:45:58.810Z,22.1
2022-08-02T11:01:01.213Z,21.16
2022-08-02T11:16:07.752Z,21.27
2022-08-02T11:31:13.544Z,20.5
2022-08-02T11:46:15.858Z,20.81
2022-08-02T12:01:18.117Z,21.12
2022-08-02T12:16:20.335Z,20.19
2022-08-02T12:31:22.716Z,20.16
2022-08-02T12:46:24.911Z,20.15
2022-08-02T13:01:27.170Z,20.14
2022-08-02T13:16:31.296Z,20.06
2022-08-02T13:31:36.620Z,20.24
2022-08-02T13:46:39.292Z,20.99
2022-08-02T14:01:48.045Z,20.72
2022-08-02T14:16:50.335Z,21.61
2022-08-02T14:31:52.583Z,22.4
2022-08-02T14:46:56.182Z,22.54
2022-08-02T15:01:58.524Z,24.15
2022-08-02T15:17:00.878Z,23.41
2022-08-02T15:32:03.149Z,25.25
2022-08-02T15:47:05.335Z,25.9
2022-08-02T16:02:07.684Z,26.89
2022-08-02T16:17:09.954Z,28.22
2022-08-02T16:32:12.515Z,28.46
2022-08-02T16:47:15.198Z,29.12
2022-08-02T17:02:18.343Z,29.5
2022-08-02T17:17:21.747Z,30.48
2022-08-02T17:32:24.143Z,31.09
2022-08-02T17:47:31.657Z,31.6
2022-08-02T18:02:55.139Z,32.07
2022-08-02T18:17:58.001Z,32.62
2022-08-02T18:33:55.896Z,33.4
2022-08-02T18:49:13.300Z,33.9
2022-08-02T19:04:27.592Z,33.93
2022-08-02T19:19:30.853Z,33.91
2022-08-02T19:34:35.694Z,34.04
2022-08-02T19:49:40.431Z,34.12
2022-08-02T20:04:43.219Z,34.35
2022-08-02T20:19:52.548Z,36.24
2022-08-02T20:34:54.750Z,35.65
2022-08-02T20:49:57.101Z,35.65
2022-08-02T21:05:00.117Z,37.06
2022-08-02T21:20:10.082Z,35.23
2022-08-02T21:35:13.271Z,36.76
2022-08-02T21:50:16.308Z,36.71
2022-08-02T22:05:18.962Z,37.76
2022-08-02T22:20:21.526Z,37.96
2022-08-02T22:35:23.871Z,38.75
2022-08-02T22:50:27.098Z,37.77
2022-08-02T23:05:29.380Z,38.1
2022-08-02T23:20:31.614Z,38.17
2022-08-02T23:35:33.885Z,37.75
2022-08-02T23:50:36.084Z,37.24
